• Join FlightAware (Why Join?)
  • Login
  • US Flag 
05:02AM EDT


 

Airport Tracker/Info


-or-


 

Live Flight TrackerFlight Track Log ✈ SWA2624 ✈ 17/Apr/2013 ✈ KABQ - KLAS

Flight Track Log - Related Links

Times and Time Zones

All times are in EDT time to prevent confusion due to time zone crossing. See the SWA2624 flight status page for this flight to view local times or setup timezone preferences in your user account.

Time Position Orientation Groundspeed Altitude Reporting Facility
EDT Latitude Longitude Course Direction KTS MPH feet Rate Location/Type
11:54PM 35.0078 -106.6922 255° West 229 264 9,000  Level Albuquerque Center
11:55PM 35.0192 -106.7236 294° West 250 288 10,200 3,360 Climbing Albuquerque Center
11:56PM 35.0464 -106.8214 289° West 291 335 14,000 4,080 Climbing Albuquerque Center
11:57PM 35.0800 -106.9425 289° West 335 386 18,500 4,380 Climbing Albuquerque Center
11:58PM 35.1081 -107.0636 286° West 333 383 23,000 3,840 Climbing Albuquerque Center
11:59PM 35.1183 -107.1731 277° West 339 390 26,400 2,400 Climbing Albuquerque Center
12:00AM 35.1283 -107.2864 276° West 353 406 28,000 1,620 Climbing Albuquerque Center
12:01AM 35.1414 -107.4069 278° West 357 411 29,700 2,220 Climbing Albuquerque Center
12:02AM 35.1556 -107.5386 278° West 358 412 32,600 2,040 Climbing Albuquerque Center
12:03AM 35.1669 -107.6597 277° West 368 423 33,900 2,100 Climbing Albuquerque Center
12:04AM 35.1811 -107.8028 277° West 378 435 36,900 2,160 Climbing Albuquerque Center
12:05AM 35.1944 -107.9161 278° West 361 415 38,400 1,140 Climbing Albuquerque Center
12:06AM 35.2075 -108.0542 277° West 363 418 39,300 780 Climbing Albuquerque Center
12:07AM 35.2200 -108.1761 277° West 373 429 40,000 300 Climbing Albuquerque Center
12:08AM 35.2319 -108.2983 277° West 376 433 40,000  Level Albuquerque Center
12:09AM 35.2456 -108.4397 277° West 375 432 40,000  Level Albuquerque Center
12:10AM 35.2572 -108.5611 277° West 375 432 40,000  Level Albuquerque Center
12:11AM 35.2683 -108.6797 277° West 369 425 40,000  Level Albuquerque Center
12:12AM 35.2819 -108.8214 277° West 372 428 40,000  Level Albuquerque Center
12:13AM 35.2933 -108.9433 277° West 374 430 40,000  Level Albuquerque Center
12:14AM 35.3044 -109.0653 276° West 375 432 40,000  Level Albuquerque Center
12:15AM 35.3181 -109.2092 277° West 378 435 40,000  Level Albuquerque Center
12:16AM 35.3283 -109.3308 276° West 376 433 40,000  Level Albuquerque Center
12:17AM 35.3392 -109.4547 276° West 378 435 40,000  Level Albuquerque Center
12:18AM 35.3506 -109.5947 276° West 373 429 40,000  Level Albuquerque Center
12:19AM 35.3619 -109.7228 276° West 385 443 40,000  Level Albuquerque Center
12:20AM 35.3744 -109.8683 276° West 388 447 40,000  Level Albuquerque Center
12:21AM 35.3847 -109.9883 276° West 376 433 40,000  Level Albuquerque Center
12:22AM 35.3942 -110.1092 276° West 373 429 40,000  Level Albuquerque Center
12:23AM 35.4025 -110.2506 274° West 373 429 40,000  Level Albuquerque Center
12:24AM 35.4114 -110.3711 275° West 373 429 40,000  Level Albuquerque Center
12:25AM 35.4217 -110.4944 276° West 376 433 40,000 -540 Level Albuquerque Center
12:26AM 35.4314 -110.6361 275° West 375 432 39,000 -960 Descending Albuquerque Center
12:27AM 35.4414 -110.7592 276° West 378 435 38,100 -900 Descending Albuquerque Center
12:28AM 35.4514 -110.8825 276° West 380 437 37,200 -1,020 Descending Albuquerque Center
12:29AM 35.4619 -111.0278 275° West 381 438 36,100 -1,140 Descending Albuquerque Center
12:30AM 35.4714 -111.1547 275° West 387 445 35,000 -1,080 Descending Albuquerque Center
12:31AM 35.4817 -111.2828 276° West 392 451 34,000 -1,020 Descending Albuquerque Center
12:32AM 35.4922 -111.4319 275° West 395 455 33,000 -1,020 Descending Albuquerque Center
12:33AM 35.5022 -111.5664 275° West 398 458 32,000 -1,020 Descending Albuquerque Center
12:34AM 35.5103 -111.6992 274° West 395 455 31,000 -960 Descending Albuquerque Center
12:35AM 35.5206 -111.8353 275° West 399 459 30,100 -540 Descending Albuquerque Center
12:36AM 35.5292 -111.9719 274° West 402 463 30,000 -60 Descending Albuquerque Center
12:37AM 35.5383 -112.1072 275° West 402 463 30,000  Level Albuquerque Center
12:38AM 35.5461 -112.2161 275° West 402 463 30,000  Level Los Angeles Center
12:39AM 35.5564 -112.3808 274° West 406 467 30,000  Level Los Angeles Center
12:40AM 35.5647 -112.5181 274° West 406 467 30,000  Level Los Angeles Center
12:41AM 35.5733 -112.6469 275° West 411 473 30,000  Level Los Angeles Center
12:42AM 35.5814 -112.7878 274° West 413 475 30,000  Level Los Angeles Center
12:43AM 35.5914 -112.9569 274° West 413 475 30,000  Level Los Angeles Center
12:44AM 35.5981 -113.0867 274° West 416 479 30,000  Level Los Angeles Center
12:45AM 35.6072 -113.2292 275° West 418 481 30,000  Level Los Angeles Center
12:46AM 35.6164 -113.3853 274° West 421 484 30,000 -300 Level Los Angeles Center
12:47AM 35.6242 -113.5286 274° West 423 487 29,400 -2,220 Descending Los Angeles Center
12:48AM 35.6414 -113.6669 279° West 416 479 25,500 -3,600 Descending Los Angeles Center
12:49AM 35.6611 -113.7964 281° West 394 453 22,100 -3,180 Descending Los Angeles Center
12:50AM 35.6789 -113.9225 280° West 380 437 19,100 -1,560 Descending Los Angeles Center
12:52AM 35.7097 -114.0567 286° West 363 418 19,000 -60 Descending Los Angeles Center
12:53AM 35.7544 -114.1656 297° West 355 409 19,000 -840 Level Los Angeles Center
12:53AM 35.7825 -114.2350 296° West 364 419 17,700 -2,280 Descending Los Angeles Center
12:54AM 35.7958 -114.2742 293° West 352 405 16,700 -3,060 Descending Los Angeles Center
12:54AM 35.8200 -114.3339 297° West 346 398 14,900 -3,300 Descending Los Angeles Center
12:55AM 35.8375 -114.3811 295° West 347 399 13,400 -2,760 Descending Los Angeles Center
12:55AM 35.8653 -114.4381 301° West 346 398 12,100 -2,280 Descending Los Angeles Center
12:56AM 35.8817 -114.4836 294° West 339 390 11,100 -1,500 Descending Los Angeles Center
12:56AM 35.9056 -114.5414 297° West 309 356 10,500 -900 Descending Los Angeles Center
12:57AM 35.9189 -114.5725 298° West 293 337 10,200 -1,140 Descending Los Angeles Center
12:57AM 35.9375 -114.6158 298° West 270 311 9,500 -1,380 Descending Los Angeles Center
12:58AM 35.9525 -114.6519 297° West 266 306 8,800 -1,620 Descending Los Angeles Center
12:58AM 35.9703 -114.6953 297° West 260 299 7,900 -1,620 Descending Los Angeles Center
12:59AM 35.9844 -114.7289 298° West 256 295 7,200 -1,020 Descending Los Angeles Center
12:59AM 36.0086 -114.7914 296° West 254 292 6,700 -600 Descending Los Angeles Center
01:00AM 36.0161 -114.8058 303° West 254 292 6,600 -540 Descending Los Angeles Center
01:00AM 36.0367 -114.8594 295° West 214 246 6,200 -720 Descending Los Angeles Center
01:01AM 36.0492 -114.8858 300° West 235 270 5,900 -840 Descending Los Angeles Center
01:01AM 36.0633 -114.9222 296° West 203 234 5,400 -1,020 Descending Los Angeles Center
01:02AM 36.0731 -114.9461 297° West 215 247 4,900 -1,140 Descending Los Angeles Center
01:02AM 36.0731 -114.9856 270° West 190 219 4,300 -900 Descending Los Angeles Center
01:03AM 36.0753 -115.0069 277° West 192 221 4,000 -900 Descending Los Angeles Center
01:03AM 36.0728 -115.0336 263° West 166 191 3,500 -900 Descending Los Angeles Center
01:04AM 36.0733 -115.0614 271° West 174 200 3,100 -780 Descending Los Angeles Center
01:04AM 36.0725 -115.0922 268° West 144 166 2,700 -720 Descending Los Angeles Center
01:05AM 36.0736 -115.1081 275° West 156 180 2,400 -420 Descending Los Angeles Center
01:06AM 36.0736 -115.1469 270° West 146 168 2,000 -360 Descending Los Angeles Center